sensor_id;sensor_type;location;lat;lon;timestamp;P1;durP1;ratioP1;P2;durP2;ratioP2
48941;SDS011;35340;52.378;4.648;2022-12-18T05:28:36;8.88;;;7.85;;
48941;SDS011;35340;52.378;4.648;2022-12-18T05:31:02;8.68;;;7.43;;
48941;SDS011;35340;52.378;4.648;2022-12-18T05:33:30;7.80;;;6.78;;
48941;SDS011;35340;52.378;4.648;2022-12-18T05:35:58;8.48;;;6.88;;
48941;SDS011;35340;52.378;4.648;2022-12-18T05:38:25;7.60;;;6.47;;
48941;SDS011;35340;52.378;4.648;2022-12-18T05:40:52;7.40;;;6.57;;
48941;SDS011;35340;52.378;4.648;2022-12-18T05:43:18;8.27;;;7.10;;
48941;SDS011;35340;52.378;4.648;2022-12-18T05:45:47;7.40;;;6.60;;
48941;SDS011;35340;52.378;4.648;2022-12-18T05:48:16;8.43;;;7.50;;
48941;SDS011;35340;52.378;4.648;2022-12-18T05:50:43;7.65;;;6.63;;
48941;SDS011;35340;52.378;4.648;2022-12-18T05:53:10;8.27;;;7.05;;
48941;SDS011;35340;52.378;4.648;2022-12-18T05:55:39;7.00;;;6.30;;
48941;SDS011;35340;52.378;4.648;2022-12-18T05:58:06;7.80;;;6.97;;
48941;SDS011;35340;52.378;4.648;2022-12-18T06:00:34;8.05;;;6.95;;
48941;SDS011;35340;52.378;4.648;2022-12-18T06:03:01;9.02;;;7.40;;
48941;SDS011;35340;52.378;4.648;2022-12-18T06:05:29;8.25;;;7.03;;
48941;SDS011;35340;52.378;4.648;2022-12-18T06:11:00;7.55;;;6.75;;
48941;SDS011;35340;52.378;4.648;2022-12-18T06:13:27;8.07;;;6.68;;
48941;SDS011;35340;52.378;4.648;2022-12-18T06:15:52;8.30;;;6.80;;
48941;SDS011;35340;52.378;4.648;2022-12-18T06:18:18;8.50;;;7.18;;
48941;SDS011;35340;52.378;4.648;2022-12-18T06:20:43;7.35;;;6.50;;
48941;SDS011;35340;52.378;4.648;2022-12-18T06:23:09;7.60;;;6.72;;
48941;SDS011;35340;52.378;4.648;2022-12-18T06:25:37;7.75;;;6.93;;
48941;SDS011;35340;52.378;4.648;2022-12-18T06:28:05;8.23;;;7.15;;
48941;SDS011;35340;52.378;4.648;2022-12-18T06:30:31;8.05;;;7.25;;
48941;SDS011;35340;52.378;4.648;2022-12-18T06:32:58;7.65;;;6.65;;
48941;SDS011;35340;52.378;4.648;2022-12-18T06:38:57;7.70;;;6.88;;
48941;SDS011;35340;52.378;4.648;2022-12-18T06:41:47;8.70;;;7.07;;
48941;SDS011;35340;52.378;4.648;2022-12-18T06:44:58;7.78;;;6.28;;
48941;SDS011;35340;52.378;4.648;2022-12-18T07:02:58;7.63;;;6.57;;
48941;SDS011;35340;52.378;4.648;2022-12-18T07:05:24;9.02;;;6.72;;
48941;SDS011;35340;52.378;4.648;2022-12-18T07:07:51;7.93;;;6.95;;
48941;SDS011;35340;52.378;4.648;2022-12-18T07:10:22;7.38;;;6.65;;
48941;SDS011;35340;52.378;4.648;2022-12-18T07:12:54;8.10;;;6.97;;
48941;SDS011;35340;52.378;4.648;2022-12-18T07:15:27;8.18;;;6.75;;
48941;SDS011;35340;52.378;4.648;2022-12-18T07:44:42;9.52;;;6.50;;
48941;SDS011;35340;52.378;4.648;2022-12-18T07:47:07;7.63;;;5.97;;
48941;SDS011;35340;52.378;4.648;2022-12-18T07:49:33;8.38;;;6.07;;
48941;SDS011;35340;52.378;4.648;2022-12-18T08:01:07;8.68;;;5.35;;
48941;SDS011;35340;52.378;4.648;2022-12-18T08:03:35;5.97;;;4.85;;
48941;SDS011;35340;52.378;4.648;2022-12-18T09:05:30;9.55;;;5.65;;
48941;SDS011;35340;52.378;4.648;2022-12-18T09:07:55;7.60;;;5.68;;
48941;SDS011;35340;52.378;4.648;2022-12-18T09:10:21;6.75;;;5.32;;
48941;SDS011;35340;52.378;4.648;2022-12-18T09:12:47;6.20;;;5.00;;
48941;SDS011;35340;52.378;4.648;2022-12-18T09:15:12;11.18;;;5.22;;
48941;SDS011;35340;52.378;4.648;2022-12-18T09:17:37;7.85;;;5.30;;
48941;SDS011;35340;52.378;4.648;2022-12-18T09:20:03;5.72;;;4.45;;
48941;SDS011;35340;52.378;4.648;2022-12-18T09:22:29;5.85;;;4.70;;
48941;SDS011;35340;52.378;4.648;2022-12-18T09:24:54;7.05;;;4.82;;
48941;SDS011;35340;52.378;4.648;2022-12-18T09:27:19;7.15;;;5.00;;
48941;SDS011;35340;52.378;4.648;2022-12-18T09:29:45;6.63;;;4.80;;
48941;SDS011;35340;52.378;4.648;2022-12-18T09:32:10;5.20;;;4.45;;
48941;SDS011;35340;52.378;4.648;2022-12-18T09:34:36;6.88;;;4.60;;
48941;SDS011;35340;52.378;4.648;2022-12-18T09:37:01;6.18;;;4.40;;
48941;SDS011;35340;52.378;4.648;2022-12-18T09:39:27;13.48;;;4.75;;
48941;SDS011;35340;52.378;4.648;2022-12-18T09:41:55;7.43;;;4.72;;
48941;SDS011;35340;52.378;4.648;2022-12-18T09:44:24;6.40;;;4.53;;
48941;SDS011;35340;52.378;4.648;2022-12-18T09:46:56;5.10;;;4.28;;
48941;SDS011;35340;52.378;4.648;2022-12-18T09:49:29;5.15;;;4.28;;
48941;SDS011;35340;52.378;4.648;2022-12-18T09:52:05;5.30;;;3.97;;
48941;SDS011;35340;52.378;4.648;2022-12-18T09:54:55;5.95;;;4.55;;
48941;SDS011;35340;52.378;4.648;2022-12-18T09:57:26;6.05;;;4.38;;
48941;SDS011;35340;52.378;4.648;2022-12-18T09:59:53;5.13;;;4.22;;
48941;SDS011;35340;52.378;4.648;2022-12-18T10:02:23;5.13;;;3.65;;
48941;SDS011;35340;52.378;4.648;2022-12-18T10:14:05;5.07;;;4.05;;
48941;SDS011;35340;52.378;4.648;2022-12-18T10:21:51;5.00;;;3.53;;
48941;SDS011;35340;52.378;4.648;2022-12-18T10:24:37;7.20;;;3.93;;
48941;SDS011;35340;52.378;4.648;2022-12-18T10:27:12;5.10;;;3.85;;
48941;SDS011;35340;52.378;4.648;2022-12-18T10:29:41;13.35;;;4.50;;
48941;SDS011;35340;52.378;4.648;2022-12-18T10:32:13;10.60;;;4.30;;
48941;SDS011;35340;52.378;4.648;2022-12-18T10:34:41;6.80;;;4.05;;
48941;SDS011;35340;52.378;4.648;2022-12-18T10:37:12;6.75;;;3.70;;
48941;SDS011;35340;52.378;4.648;2022-12-18T10:39:42;6.78;;;3.97;;
48941;SDS011;35340;52.378;4.648;2022-12-18T10:42:14;7.90;;;3.78;;
48941;SDS011;35340;52.378;4.648;2022-12-18T10:44:43;6.32;;;4.10;;
48941;SDS011;35340;52.378;4.648;2022-12-18T10:47:17;7.55;;;4.13;;
48941;SDS011;35340;52.378;4.648;2022-12-18T10:49:49;6.63;;;4.00;;
48941;SDS011;35340;52.378;4.648;2022-12-18T10:52:20;5.53;;;3.70;;
48941;SDS011;35340;52.378;4.648;2022-12-18T10:54:48;5.47;;;3.78;;
48941;SDS011;35340;52.378;4.648;2022-12-18T11:00:20;5.32;;;4.13;;
48941;SDS011;35340;52.378;4.648;2022-12-18T11:06:10;9.23;;;4.18;;
48941;SDS011;35340;52.378;4.648;2022-12-18T11:08:42;11.93;;;4.40;;
48941;SDS011;35340;52.378;4.648;2022-12-18T11:14:53;8.13;;;4.97;;
48941;SDS011;35340;52.378;4.648;2022-12-18T11:17:31;7.10;;;4.22;;
48941;SDS011;35340;52.378;4.648;2022-12-18T11:20:06;8.63;;;3.80;;
48941;SDS011;35340;52.378;4.648;2022-12-18T11:22:59;6.93;;;4.10;;
48941;SDS011;35340;52.378;4.648;2022-12-18T11:25:27;6.35;;;3.92;;
48941;SDS011;35340;52.378;4.648;2022-12-18T11:27:58;5.90;;;4.00;;
48941;SDS011;35340;52.378;4.648;2022-12-18T11:33:32;6.82;;;5.03;;
48941;SDS011;35340;52.378;4.648;2022-12-18T11:36:28;6.15;;;4.90;;
48941;SDS011;35340;52.378;4.648;2022-12-18T11:41:52;5.47;;;4.18;;
48941;SDS011;35340;52.378;4.648;2022-12-18T11:53:57;5.95;;;3.70;;
48941;SDS011;35340;52.378;4.648;2022-12-18T12:49:24;4.65;;;3.00;;
48941;SDS011;35340;52.378;4.648;2022-12-18T12:51:57;3.58;;;2.92;;
48941;SDS011;35340;52.378;4.648;2022-12-18T13:29:40;5.13;;;3.10;;
48941;SDS011;35340;52.378;4.648;2022-12-18T14:17:01;4.68;;;2.70;;
48941;SDS011;35340;52.378;4.648;2022-12-18T14:19:27;3.40;;;2.60;;
48941;SDS011;35340;52.378;4.648;2022-12-18T14:21:52;7.43;;;2.78;;
48941;SDS011;35340;52.378;4.648;2022-12-18T14:24:20;5.05;;;2.72;;
48941;SDS011;35340;52.378;4.648;2022-12-18T14:26:50;3.80;;;2.80;;
48941;SDS011;35340;52.378;4.648;2022-12-18T14:34:53;4.68;;;2.63;;
48941;SDS011;35340;52.378;4.648;2022-12-18T14:40:45;5.80;;;3.15;;
48941;SDS011;35340;52.378;4.648;2022-12-18T14:43:13;6.55;;;2.80;;
48941;SDS011;35340;52.378;4.648;2022-12-18T14:45:42;8.95;;;3.00;;
48941;SDS011;35340;52.378;4.648;2022-12-18T14:48:20;5.93;;;2.90;;
48941;SDS011;35340;52.378;4.648;2022-12-18T14:51:21;3.15;;;2.58;;
48941;SDS011;35340;52.378;4.648;2022-12-18T14:56:29;3.78;;;2.70;;
48941;SDS011;35340;52.378;4.648;2022-12-18T14:59:00;3.25;;;2.53;;
48941;SDS011;35340;52.378;4.648;2022-12-18T15:01:36;3.58;;;2.53;;
48941;SDS011;35340;52.378;4.648;2022-12-18T15:04:04;3.45;;;2.50;;
48941;SDS011;35340;52.378;4.648;2022-12-18T15:06:48;3.88;;;2.72;;
48941;SDS011;35340;52.378;4.648;2022-12-18T15:09:23;7.60;;;2.92;;
48941;SDS011;35340;52.378;4.648;2022-12-18T15:11:56;3.55;;;2.65;;
48941;SDS011;35340;52.378;4.648;2022-12-18T15:16:56;4.03;;;2.55;;
48941;SDS011;35340;52.378;4.648;2022-12-18T15:19:25;2.88;;;2.45;;
48941;SDS011;35340;52.378;4.648;2022-12-18T15:22:03;4.22;;;2.72;;
48941;SDS011;35340;52.378;4.648;2022-12-18T15:24:30;4.28;;;2.70;;
48941;SDS011;35340;52.378;4.648;2022-12-18T15:26:57;4.47;;;2.85;;
48941;SDS011;35340;52.378;4.648;2022-12-18T15:29:23;3.47;;;2.60;;
48941;SDS011;35340;52.378;4.648;2022-12-18T15:32:33;3.20;;;2.40;;
48941;SDS011;35340;52.378;4.648;2022-12-18T15:34:44;3.33;;;2.70;;
48941;SDS011;35340;52.378;4.648;2022-12-18T15:37:10;3.53;;;2.70;;
48941;SDS011;35340;52.378;4.648;2022-12-18T15:39:35;3.15;;;2.65;;
48941;SDS011;35340;52.378;4.648;2022-12-18T15:42:01;5.07;;;2.50;;
48941;SDS011;35340;52.378;4.648;2022-12-18T15:44:45;3.47;;;2.45;;
48941;SDS011;35340;52.378;4.648;2022-12-18T15:47:11;3.95;;;2.72;;
48941;SDS011;35340;52.378;4.648;2022-12-18T15:49:38;4.85;;;2.72;;
48941;SDS011;35340;52.378;4.648;2022-12-18T15:52:03;3.75;;;2.63;;
48941;SDS011;35340;52.378;4.648;2022-12-18T15:54:29;3.13;;;2.75;;
48941;SDS011;35340;52.378;4.648;2022-12-18T15:57:13;3.67;;;2.95;;
48941;SDS011;35340;52.378;4.648;2022-12-18T15:59:47;4.13;;;2.70;;
48941;SDS011;35340;52.378;4.648;2022-12-18T16:02:14;3.22;;;2.53;;
48941;SDS011;35340;52.378;4.648;2022-12-18T16:04:42;3.42;;;2.47;;
48941;SDS011;35340;52.378;4.648;2022-12-18T16:07:08;3.08;;;2.42;;
48941;SDS011;35340;52.378;4.648;2022-12-18T16:09:34;3.35;;;2.50;;
48941;SDS011;35340;52.378;4.648;2022-12-18T16:12:00;3.08;;;2.53;;
48941;SDS011;35340;52.378;4.648;2022-12-18T16:14:29;3.10;;;2.35;;
48941;SDS011;35340;52.378;4.648;2022-12-18T16:17:03;3.10;;;2.67;;
48941;SDS011;35340;52.378;4.648;2022-12-18T16:19:33;4.13;;;2.70;;
48941;SDS011;35340;52.378;4.648;2022-12-18T16:21:59;3.70;;;2.80;;
48941;SDS011;35340;52.378;4.648;2022-12-18T16:24:27;3.53;;;2.75;;
48941;SDS011;35340;52.378;4.648;2022-12-18T16:26:55;2.90;;;2.50;;
48941;SDS011;35340;52.378;4.648;2022-12-18T16:29:21;3.08;;;2.50;;
48941;SDS011;35340;52.378;4.648;2022-12-18T16:31:51;3.40;;;2.83;;
48941;SDS011;35340;52.378;4.648;2022-12-18T16:36:52;7.75;;;2.63;;
48941;SDS011;35340;52.378;4.648;2022-12-18T17:08:18;3.55;;;2.90;;
48941;SDS011;35340;52.378;4.648;2022-12-18T17:10:44;3.72;;;2.65;;
48941;SDS011;35340;52.378;4.648;2022-12-18T17:13:09;3.70;;;3.05;;
48941;SDS011;35340;52.378;4.648;2022-12-18T17:15:35;3.60;;;2.70;;
48941;SDS011;35340;52.378;4.648;2022-12-18T17:18:01;4.35;;;3.00;;
48941;SDS011;35340;52.378;4.648;2022-12-18T17:20:27;4.32;;;3.00;;
48941;SDS011;35340;52.378;4.648;2022-12-18T17:22:54;3.70;;;2.85;;
48941;SDS011;35340;52.378;4.648;2022-12-18T17:45:03;5.47;;;3.50;;
48941;SDS011;35340;52.378;4.648;2022-12-18T17:47:39;4.53;;;3.30;;
48941;SDS011;35340;52.378;4.648;2022-12-18T17:50:04;5.15;;;3.33;;
48941;SDS011;35340;52.378;4.648;2022-12-18T17:52:30;4.85;;;3.35;;
48941;SDS011;35340;52.378;4.648;2022-12-18T17:54:56;5.70;;;3.58;;
48941;SDS011;35340;52.378;4.648;2022-12-18T18:44:08;5.25;;;3.63;;
48941;SDS011;35340;52.378;4.648;2022-12-18T18:46:34;4.38;;;3.17;;
48941;SDS011;35340;52.378;4.648;2022-12-18T18:49:00;8.02;;;3.63;;
48941;SDS011;35340;52.378;4.648;2022-12-18T18:51:25;4.65;;;3.42;;
48941;SDS011;35340;52.378;4.648;2022-12-18T18:53:51;4.68;;;3.70;;
48941;SDS011;35340;52.378;4.648;2022-12-18T18:56:19;4.60;;;3.80;;
48941;SDS011;35340;52.378;4.648;2022-12-18T18:58:47;3.78;;;3.25;;
48941;SDS011;35340;52.378;4.648;2022-12-18T19:01:14;3.97;;;3.10;;
48941;SDS011;35340;52.378;4.648;2022-12-18T19:03:42;4.90;;;3.33;;
48941;SDS011;35340;52.378;4.648;2022-12-18T19:06:09;4.40;;;3.40;;
48941;SDS011;35340;52.378;4.648;2022-12-18T19:08:38;5.18;;;3.40;;
48941;SDS011;35340;52.378;4.648;2022-12-18T19:11:06;4.43;;;3.55;;
48941;SDS011;35340;52.378;4.648;2022-12-18T19:13:51;4.22;;;3.05;;
48941;SDS011;35340;52.378;4.648;2022-12-18T19:16:19;4.40;;;3.20;;
48941;SDS011;35340;52.378;4.648;2022-12-18T19:18:45;4.22;;;3.13;;
48941;SDS011;35340;52.378;4.648;2022-12-18T19:21:10;3.67;;;3.05;;
48941;SDS011;35340;52.378;4.648;2022-12-18T19:23:35;4.20;;;3.20;;
48941;SDS011;35340;52.378;4.648;2022-12-18T19:26:02;4.47;;;3.10;;
48941;SDS011;35340;52.378;4.648;2022-12-18T19:28:28;4.28;;;2.97;;
48941;SDS011;35340;52.378;4.648;2022-12-18T19:30:55;5.05;;;3.08;;
48941;SDS011;35340;52.378;4.648;2022-12-18T19:33:24;5.93;;;3.30;;
48941;SDS011;35340;52.378;4.648;2022-12-18T19:35:49;4.72;;;3.40;;
48941;SDS011;35340;52.378;4.648;2022-12-18T19:38:15;5.53;;;3.40;;
48941;SDS011;35340;52.378;4.648;2022-12-18T19:40:41;5.88;;;3.08;;
48941;SDS011;35340;52.378;4.648;2022-12-18T19:43:08;4.45;;;3.58;;
48941;SDS011;35340;52.378;4.648;2022-12-18T19:45:34;4.43;;;3.55;;
48941;SDS011;35340;52.378;4.648;2022-12-18T19:48:06;6.70;;;3.80;;
48941;SDS011;35340;52.378;4.648;2022-12-18T19:50:34;7.43;;;4.05;;
48941;SDS011;35340;52.378;4.648;2022-12-18T19:53:04;10.52;;;4.38;;
48941;SDS011;35340;52.378;4.648;2022-12-18T19:55:30;8.93;;;4.13;;
48941;SDS011;35340;52.378;4.648;2022-12-18T19:57:56;10.48;;;4.03;;
48941;SDS011;35340;52.378;4.648;2022-12-18T20:00:22;8.15;;;4.05;;
48941;SDS011;35340;52.378;4.648;2022-12-18T20:02:49;6.43;;;4.38;;
48941;SDS011;35340;52.378;4.648;2022-12-18T20:05:15;8.02;;;4.07;;
48941;SDS011;35340;52.378;4.648;2022-12-18T20:07:41;7.43;;;4.00;;
48941;SDS011;35340;52.378;4.648;2022-12-18T20:10:07;5.93;;;4.28;;
48941;SDS011;35340;52.378;4.648;2022-12-18T20:12:37;8.82;;;4.10;;
48941;SDS011;35340;52.378;4.648;2022-12-18T20:15:02;6.88;;;4.25;;
48941;SDS011;35340;52.378;4.648;2022-12-18T20:17:28;7.78;;;4.55;;
48941;SDS011;35340;52.378;4.648;2022-12-18T20:19:53;7.35;;;4.63;;
48941;SDS011;35340;52.378;4.648;2022-12-18T20:22:18;5.80;;;4.15;;
48941;SDS011;35340;52.378;4.648;2022-12-18T20:24:44;6.57;;;4.20;;
48941;SDS011;35340;52.378;4.648;2022-12-18T20:27:09;6.70;;;4.53;;
48941;SDS011;35340;52.378;4.648;2022-12-18T20:29:37;6.80;;;4.20;;
48941;SDS011;35340;52.378;4.648;2022-12-18T20:32:07;5.95;;;4.32;;
48941;SDS011;35340;52.378;4.648;2022-12-18T20:34:50;5.90;;;4.43;;
48941;SDS011;35340;52.378;4.648;2022-12-18T20:37:18;6.07;;;4.32;;
48941;SDS011;35340;52.378;4.648;2022-12-18T20:39:47;8.65;;;5.13;;
48941;SDS011;35340;52.378;4.648;2022-12-18T20:42:14;5.35;;;4.45;;
48941;SDS011;35340;52.378;4.648;2022-12-18T20:44:43;7.15;;;4.70;;
48941;SDS011;35340;52.378;4.648;2022-12-18T20:47:09;5.72;;;4.55;;
48941;SDS011;35340;52.378;4.648;2022-12-18T20:49:47;6.78;;;4.68;;
48941;SDS011;35340;52.378;4.648;2022-12-18T20:52:15;8.00;;;4.63;;
48941;SDS011;35340;52.378;4.648;2022-12-18T20:54:41;6.60;;;4.57;;
48941;SDS011;35340;52.378;4.648;2022-12-18T20:57:06;5.50;;;4.45;;
48941;SDS011;35340;52.378;4.648;2022-12-18T20:59:34;5.93;;;4.65;;
48941;SDS011;35340;52.378;4.648;2022-12-18T21:02:05;5.85;;;4.32;;
48941;SDS011;35340;52.378;4.648;2022-12-18T21:04:43;5.45;;;4.03;;
48941;SDS011;35340;52.378;4.648;2022-12-18T21:07:11;6.18;;;4.03;;
48941;SDS011;35340;52.378;4.648;2022-12-18T21:09:36;5.53;;;4.10;;
48941;SDS011;35340;52.378;4.648;2022-12-18T21:12:05;5.13;;;4.07;;
48941;SDS011;35340;52.378;4.648;2022-12-18T21:14:55;5.50;;;4.07;;
48941;SDS011;35340;52.378;4.648;2022-12-18T21:17:30;5.28;;;4.18;;
48941;SDS011;35340;52.378;4.648;2022-12-18T21:19:56;5.63;;;4.20;;
48941;SDS011;35340;52.378;4.648;2022-12-18T21:22:21;5.03;;;4.15;;
48941;SDS011;35340;52.378;4.648;2022-12-18T21:24:47;6.25;;;4.38;;
48941;SDS011;35340;52.378;4.648;2022-12-18T21:27:13;5.13;;;3.92;;
48941;SDS011;35340;52.378;4.648;2022-12-18T21:29:38;5.60;;;4.28;;
48941;SDS011;35340;52.378;4.648;2022-12-18T21:32:04;4.70;;;3.95;;
48941;SDS011;35340;52.378;4.648;2022-12-18T21:34:30;5.18;;;4.18;;
48941;SDS011;35340;52.378;4.648;2022-12-18T21:36:57;7.65;;;4.18;;
48941;SDS011;35340;52.378;4.648;2022-12-18T21:39:24;4.95;;;4.25;;
48941;SDS011;35340;52.378;4.648;2022-12-18T21:41:51;5.40;;;4.25;;
48941;SDS011;35340;52.378;4.648;2022-12-18T21:44:35;6.57;;;4.40;;
48941;SDS011;35340;52.378;4.648;2022-12-18T21:47:02;4.90;;;4.07;;
48941;SDS011;35340;52.378;4.648;2022-12-18T21:59:49;5.53;;;4.20;;
48941;SDS011;35340;52.378;4.648;2022-12-18T22:02:27;5.22;;;4.25;;
48941;SDS011;35340;52.378;4.648;2022-12-18T22:04:52;6.72;;;4.32;;
48941;SDS011;35340;52.378;4.648;2022-12-18T22:07:18;5.20;;;4.13;;
48941;SDS011;35340;52.378;4.648;2022-12-18T22:09:44;5.53;;;4.47;;
48941;SDS011;35340;52.378;4.648;2022-12-18T22:12:11;4.90;;;4.28;;
48941;SDS011;35340;52.378;4.648;2022-12-18T22:22:44;7.45;;;4.45;;
48941;SDS011;35340;52.378;4.648;2022-12-18T22:25:10;4.50;;;3.83;;
48941;SDS011;35340;52.378;4.648;2022-12-18T22:27:42;4.63;;;4.05;;
48941;SDS011;35340;52.378;4.648;2022-12-18T22:30:30;5.88;;;4.70;;
48941;SDS011;35340;52.378;4.648;2022-12-18T22:32:55;5.75;;;4.70;;
48941;SDS011;35340;52.378;4.648;2022-12-18T22:35:24;4.53;;;3.92;;
48941;SDS011;35340;52.378;4.648;2022-12-18T22:51:27;8.13;;;5.68;;
48941;SDS011;35340;52.378;4.648;2022-12-18T22:53:56;7.72;;;5.70;;
48941;SDS011;35340;52.378;4.648;2022-12-18T22:56:22;9.77;;;5.85;;
48941;SDS011;35340;52.378;4.648;2022-12-18T22:58:48;7.97;;;6.05;;
48941;SDS011;35340;52.378;4.648;2022-12-18T23:01:21;9.35;;;6.30;;
48941;SDS011;35340;52.378;4.648;2022-12-18T23:03:49;8.90;;;6.40;;
48941;SDS011;35340;52.378;4.648;2022-12-18T23:06:15;9.40;;;6.20;;
48941;SDS011;35340;52.378;4.648;2022-12-18T23:08:41;7.57;;;5.90;;
48941;SDS011;35340;52.378;4.648;2022-12-18T23:11:07;8.00;;;6.10;;
48941;SDS011;35340;52.378;4.648;2022-12-18T23:13:34;10.48;;;6.50;;
48941;SDS011;35340;52.378;4.648;2022-12-18T23:16:05;8.80;;;6.18;;
48941;SDS011;35340;52.378;4.648;2022-12-18T23:18:35;9.38;;;6.28;;
48941;SDS011;35340;52.378;4.648;2022-12-18T23:21:05;8.43;;;6.03;;
48941;SDS011;35340;52.378;4.648;2022-12-18T23:23:34;10.75;;;6.20;;
48941;SDS011;35340;52.378;4.648;2022-12-18T23:26:04;9.93;;;6.60;;
48941;SDS011;35340;52.378;4.648;2022-12-18T23:28:35;9.05;;;6.30;;
48941;SDS011;35340;52.378;4.648;2022-12-18T23:31:05;8.90;;;6.57;;
48941;SDS011;35340;52.378;4.648;2022-12-18T23:33:34;9.75;;;6.47;;
48941;SDS011;35340;52.378;4.648;2022-12-18T23:36:00;9.57;;;6.18;;
48941;SDS011;35340;52.378;4.648;2022-12-18T23:38:28;9.75;;;6.43;;
48941;SDS011;35340;52.378;4.648;2022-12-18T23:53:51;8.75;;;5.95;;
48941;SDS011;35340;52.378;4.648;2022-12-18T23:56:27;9.02;;;6.22;;
48941;SDS011;35340;52.378;4.648;2022-12-18T23:58:59;8.23;;;5.97;;
